createdAt,value
2019-01-20T00:00:24.951Z,30.47
2019-01-20T00:05:22.053Z,26.83
2019-01-20T00:10:19.205Z,25.27
2019-01-20T00:15:18.318Z,22.17
2019-01-20T00:20:15.804Z,21.20
2019-01-20T00:25:13.049Z,21.07
2019-01-20T00:30:13.524Z,22.47
2019-01-20T00:35:10.525Z,26.70
2019-01-20T00:40:12.474Z,29.13
2019-01-20T00:45:17.084Z,31.57
2019-01-20T00:50:15.808Z,33.50
2019-01-20T00:55:15.683Z,32.40
2019-01-20T01:00:28.508Z,31.00
2019-01-20T01:05:26.240Z,32.30
2019-01-20T01:10:23.886Z,30.73
2019-01-20T01:15:20.796Z,38.77
2019-01-20T01:20:19.285Z,43.83
2019-01-20T01:25:16.797Z,48.33
2019-01-20T01:30:17.681Z,39.37
2019-01-20T01:35:14.675Z,29.60
2019-01-20T01:40:15.102Z,29.20
2019-01-20T01:45:15.714Z,31.07
2019-01-20T01:50:14.373Z,27.80
2019-01-20T01:55:32.868Z,30.73
2019-01-20T02:00:29.778Z,29.03
2019-01-20T02:05:26.766Z,31.87
2019-01-20T02:10:23.657Z,29.20
2019-01-20T02:15:21.321Z,29.13
2019-01-20T02:20:22.180Z,26.20
2019-01-20T02:25:19.533Z,28.00
2019-01-20T02:30:20.244Z,25.93
2019-01-20T02:35:17.195Z,22.60
2019-01-20T02:40:16.096Z,22.17
2019-01-20T02:45:14.739Z,25.50
2019-01-20T02:50:17.430Z,36.93
2019-01-20T02:55:14.737Z,39.17
2019-01-20T03:00:19.154Z,53.40
2019-01-20T03:05:17.761Z,64.70
2019-01-20T03:10:15.036Z,70.93
2019-01-20T03:15:13.647Z,63.00
2019-01-20T03:20:15.510Z,40.60
2019-01-20T03:25:15.053Z,37.20
2019-01-20T03:30:15.591Z,69.03
2019-01-20T03:35:14.708Z,78.20
2019-01-20T03:40:15.969Z,80.70
2019-01-20T03:45:15.382Z,90.83
2019-01-20T03:50:15.122Z,86.37
2019-01-20T03:55:15.111Z,87.40
2019-01-20T04:00:23.113Z,90.37
2019-01-20T04:05:20.034Z,93.43
2019-01-20T04:10:16.972Z,94.40
2019-01-20T04:15:15.086Z,62.70
2019-01-20T04:20:14.448Z,48.37
2019-01-20T04:25:17.588Z,39.30
2019-01-20T04:30:17.752Z,35.67
2019-01-20T04:35:14.667Z,28.90
2019-01-20T04:40:16.528Z,26.50
2019-01-20T04:45:14.044Z,25.80
2019-01-20T04:50:15.797Z,26.10
2019-01-20T04:55:14.108Z,25.30
2019-01-20T05:00:15.362Z,21.47
2019-01-20T05:05:12.355Z,21.83
2019-01-20T05:10:12.612Z,22.67
2019-01-20T05:15:13.736Z,22.83
2019-01-20T05:20:11.468Z,22.23
2019-01-20T05:25:10.077Z,20.97
2019-01-20T05:30:14.485Z,21.53
2019-01-20T05:35:11.603Z,22.27
2019-01-20T05:40:14.696Z,20.00
2019-01-20T05:45:15.499Z,21.77
2019-01-20T05:50:13.453Z,20.90
2019-01-20T05:55:14.646Z,19.90
2019-01-20T06:00:22.502Z,21.80
2019-01-20T06:05:19.408Z,21.90
2019-01-20T06:10:16.356Z,19.80
2019-01-20T06:15:19.001Z,24.60
2019-01-20T06:20:17.710Z,21.87
2019-01-20T06:25:14.931Z,40.53
2019-01-20T06:30:24.926Z,44.30
2019-01-20T06:35:21.955Z,49.33
2019-01-20T06:40:18.905Z,63.63
2019-01-20T06:45:15.783Z,60.00
2019-01-20T06:50:18.447Z,33.93
2019-01-20T06:55:15.542Z,36.50
2019-01-20T07:00:21.659Z,36.10
2019-01-20T07:05:18.544Z,27.20
2019-01-20T07:10:17.390Z,24.47
2019-01-20T07:15:18.120Z,25.47
2019-01-20T07:20:15.065Z,32.37
2019-01-20T07:25:12.428Z,29.53
2019-01-20T07:30:18.939Z,28.87
2019-01-20T07:35:16.442Z,26.77
2019-01-20T07:40:17.108Z,31.50
2019-01-20T07:45:15.812Z,30.77
2019-01-20T07:50:17.275Z,30.90
2019-01-20T07:55:14.194Z,31.47
2019-01-20T08:00:18.601Z,116.47
2019-01-20T08:05:16.406Z,112.83
2019-01-20T08:10:17.169Z,108.17
2019-01-20T08:15:15.679Z,99.57
2019-01-20T08:20:18.278Z,130.23
2019-01-20T08:25:19.176Z,138.90
2019-01-20T08:30:24.754Z,88.57
2019-01-20T08:35:21.874Z,66.30
2019-01-20T08:40:27.761Z,54.30
2019-01-20T08:45:38.676Z,46.00
2019-01-20T08:50:35.584Z,40.90
2019-01-20T08:55:32.563Z,26.67
2019-01-20T09:00:31.426Z,73.43
2019-01-20T09:05:28.310Z,64.53
2019-01-20T09:10:25.434Z,84.57
2019-01-20T09:15:22.376Z,98.57
2019-01-20T09:20:19.301Z,111.23
2019-01-20T09:25:16.447Z,96.47
2019-01-20T09:30:20.158Z,81.60
2019-01-20T09:35:17.766Z,63.80
2019-01-20T09:40:16.746Z,50.00
2019-01-20T09:45:28.007Z,53.73
2019-01-20T09:50:24.926Z,42.03
2019-01-20T09:55:21.978Z,42.83
2019-01-20T10:00:29.099Z,36.60
2019-01-20T10:05:26.070Z,41.73
2019-01-20T10:10:25.401Z,41.10
2019-01-20T10:15:22.447Z,55.57
2019-01-20T10:20:28.444Z,63.20
2019-01-20T10:25:25.350Z,40.80
2019-01-20T10:30:32.011Z,36.87
2019-01-20T10:35:36.009Z,38.03
2019-01-20T10:40:33.043Z,35.50
2019-01-20T10:45:29.998Z,38.40
2019-01-20T10:50:26.994Z,90.63
2019-01-20T10:55:23.958Z,70.87
2019-01-20T11:00:37.026Z,74.93
2019-01-20T11:05:34.071Z,80.10
2019-01-20T11:10:31.021Z,77.00
2019-01-20T11:15:27.944Z,91.83
2019-01-20T11:20:24.921Z,69.20
2019-01-20T11:25:26.556Z,55.40
2019-01-20T11:30:23.468Z,41.23
2019-01-20T11:35:20.531Z,71.50
2019-01-20T11:40:17.623Z,49.90
2019-01-20T11:45:26.621Z,82.70
2019-01-20T11:50:23.876Z,91.13
2019-01-20T11:55:24.998Z,42.10
2019-01-20T12:00:31.452Z,30.63
2019-01-20T12:05:30.178Z,36.93
2019-01-20T12:10:27.126Z,35.33
2019-01-20T12:15:24.095Z,34.10
2019-01-20T12:20:21.019Z,46.37
2019-01-20T12:25:19.623Z,73.53
2019-01-20T12:30:24.777Z,61.83
2019-01-20T12:35:21.915Z,41.53
2019-01-20T12:40:27.259Z,56.40
2019-01-20T12:45:24.296Z,94.40
2019-01-20T12:50:21.518Z,97.20
2019-01-20T12:55:18.479Z,72.50
2019-01-20T13:00:19.099Z,72.70
2019-01-20T13:05:18.325Z,75.00
2019-01-20T13:10:19.630Z,115.63
2019-01-20T13:15:44.665Z,112.93
2019-01-20T13:20:41.651Z,136.17
2019-01-20T13:25:38.608Z,67.27
2019-01-20T13:30:35.596Z,61.23
2019-01-20T13:35:32.587Z,69.33
2019-01-20T13:40:47.647Z,86.10
2019-01-20T13:45:46.774Z,79.10
2019-01-20T13:50:43.695Z,68.03
2019-01-20T13:55:40.682Z,56.03
2019-01-20T14:00:37.624Z,70.20
2019-01-20T14:05:34.612Z,82.43
2019-01-20T14:10:31.793Z,63.67
2019-01-20T14:15:29.803Z,80.60
2019-01-20T14:20:26.715Z,65.07
2019-01-20T14:25:29.740Z,63.70
2019-01-20T14:30:31.549Z,52.60
2019-01-20T14:35:28.537Z,48.97
2019-01-20T14:40:25.458Z,53.40
2019-01-20T14:45:22.945Z,81.57
2019-01-20T14:50:26.928Z,70.03
2019-01-20T14:55:24.484Z,53.73
2019-01-20T15:00:32.142Z,43.13
2019-01-20T15:05:29.095Z,34.97
2019-01-20T15:10:26.038Z,30.07
2019-01-20T15:15:38.604Z,29.70
2019-01-20T15:20:35.544Z,47.30
2019-01-20T15:25:32.506Z,33.77
2019-01-20T15:30:31.398Z,40.93
2019-01-20T15:35:28.453Z,39.57
2019-01-20T15:40:25.450Z,34.10
2019-01-20T15:45:23.863Z,36.63
2019-01-20T15:50:24.873Z,134.00
2019-01-20T15:55:21.816Z,61.97
2019-01-20T16:00:25.608Z,36.60
2019-01-20T16:05:23.966Z,41.33
2019-01-20T16:10:21.209Z,29.07
2019-01-20T16:15:24.620Z,28.77
2019-01-20T16:20:20.720Z,33.93
2019-01-20T16:25:27.136Z,32.37
2019-01-20T16:30:28.390Z,28.93
2019-01-20T16:35:25.597Z,43.33
2019-01-20T16:40:24.145Z,45.17
2019-01-20T16:45:32.839Z,56.80
2019-01-20T16:50:27.325Z,49.13
2019-01-20T16:55:24.242Z,33.10
2019-01-20T17:00:27.431Z,26.53
2019-01-20T17:05:26.818Z,25.30
2019-01-20T17:10:27.139Z,27.23
2019-01-20T17:15:30.510Z,25.77
2019-01-20T17:20:27.429Z,23.60
2019-01-20T17:25:24.433Z,28.23
2019-01-20T17:30:35.689Z,38.83
2019-01-20T17:35:32.617Z,33.70
2019-01-20T17:40:29.952Z,30.43
2019-01-20T17:45:35.974Z,47.40
2019-01-20T17:50:36.985Z,39.00
2019-01-20T17:55:33.984Z,61.07
2019-01-20T18:00:37.496Z,79.30
2019-01-20T18:05:36.351Z,250.83
2019-01-20T18:10:33.644Z,55.17
2019-01-20T18:15:30.605Z,70.33
2019-01-20T18:20:30.704Z,55.03
2019-01-20T18:25:27.713Z,152.57
2019-01-20T18:30:29.993Z,106.33
2019-01-20T18:35:27.532Z,120.27
2019-01-20T18:40:26.100Z,100.97
2019-01-20T18:45:32.317Z,59.33
2019-01-20T18:50:32.889Z,52.67
2019-01-20T18:55:29.929Z,48.20
2019-01-20T19:00:40.221Z,54.03
2019-01-20T19:05:37.256Z,55.57
2019-01-20T19:10:34.188Z,41.83
2019-01-20T19:15:31.136Z,53.30
2019-01-20T19:20:28.113Z,52.83
2019-01-20T19:25:25.035Z,95.10
2019-01-20T19:30:27.077Z,52.27
2019-01-20T19:35:24.602Z,57.30
2019-01-20T19:40:21.565Z,58.67
2019-01-20T19:45:20.168Z,55.90
2019-01-20T19:50:18.047Z,50.07
2019-01-20T19:55:29.888Z,45.03
2019-01-20T20:00:31.361Z,58.13
2019-01-20T20:05:28.483Z,51.73
2019-01-20T20:10:26.816Z,53.37
2019-01-20T20:15:25.572Z,52.07
2019-01-20T20:20:22.615Z,63.57
2019-01-20T20:25:22.337Z,62.53
2019-01-20T20:30:26.494Z,62.50
2019-01-20T20:35:23.558Z,69.07
2019-01-20T20:40:20.738Z,90.97
2019-01-20T20:45:24.585Z,96.60
2019-01-20T20:50:21.702Z,81.80
2019-01-20T20:55:19.343Z,71.00
2019-01-20T21:00:23.881Z,65.57
2019-01-20T21:05:20.803Z,62.47
2019-01-20T21:10:18.685Z,51.07
2019-01-20T21:15:15.791Z,48.00
2019-01-20T21:20:22.111Z,62.37
2019-01-20T21:25:19.088Z,43.90
2019-01-20T21:30:20.927Z,39.90
2019-01-20T21:35:17.855Z,34.10
2019-01-20T21:40:17.226Z,33.17
2019-01-20T21:45:16.250Z,32.30
2019-01-20T21:50:23.104Z,31.03
2019-01-20T21:55:20.007Z,29.53
2019-01-20T22:00:20.206Z,29.40
2019-01-20T22:05:17.117Z,28.57
2019-01-20T22:10:16.979Z,27.23
2019-01-20T22:15:14.441Z,29.13
2019-01-20T22:20:17.717Z,31.83
2019-01-20T22:25:14.924Z,27.10
2019-01-20T22:30:21.163Z,28.23
2019-01-20T22:35:18.282Z,31.87
2019-01-20T22:40:17.233Z,28.30
2019-01-20T22:45:23.742Z,29.83
2019-01-20T22:50:22.509Z,30.43
2019-01-20T22:55:19.769Z,28.53
2019-01-20T23:00:38.921Z,34.63
2019-01-20T23:05:35.939Z,32.87
2019-01-20T23:10:32.975Z,34.17
2019-01-20T23:15:29.895Z,31.67
2019-01-20T23:20:26.873Z,32.70
2019-01-20T23:25:23.797Z,32.10
2019-01-20T23:30:20.848Z,33.73
2019-01-20T23:35:17.748Z,31.10
2019-01-20T23:40:15.814Z,33.80
2019-01-20T23:45:13.179Z,34.83
2019-01-20T23:50:16.558Z,34.33
2019-01-20T23:55:13.470Z,29.17
